Latest Weather Observations for Wangaratta

IDV60801

Issued at 10:02 am EDT Tuesday 22 January 2019 (issued every 10 minutes, with the page automatically refreshed every 10 minutes)

About weather observations | Map of weather stations | Latest weather observations for VIC | Other Formats
Station Details ID: 082138 Name: WANGARATTA AERO Lat: -36.42 Lon: 146.31 Height: 152.6 m
Data from the previous 72 hours. | See also: Recent months at Wangaratta
Date/Time
EDT
Temp
°C
App
Temp
°C
Dew
Point
°C
Rel
Hum
%
Delta-T
°C
Wind Press
QNH
hPa
Press
MSL
hPa
Rain since
9am
mm
Dir  Spd
km/h
Gust
km/h
Spd
kts
Gust
kts
22/10:00am 32.2 30.9 15.7 37 10.3 NNE 17 24 9 13 1012.9 1012.2 0.0
22/09:30am 31.7 31.5 15.6 37 10.1 NNE 11 17 6 9 1013.0 1012.3 0.0
22/09:00am 29.3 29.7 14.7 41 8.9 ENE 6 9 3 5 1013.0 1012.3 0.0
22/08:30am 26.1 26.0 13.2 44 7.6 SE 6 7 3 4 1013.0 1012.3 0.0
22/08:00am 23.7 23.5 13.0 51 6.2 S 6 7 3 4 1013.0 1012.3 0.0
22/07:30am 21.6 21.5 13.2 59 4.8 SW 6 7 3 4 1012.8 1012.1 0.0
22/07:00am 19.8 20.5 12.1 61 4.3 CALM 0 0 0 0 1012.5 1011.8 0.0
22/06:30am 18.1 18.6 11.7 66 3.5 CALM 0 0 0 0 1012.3 1011.6 0.0
22/06:00am 18.9 19.7 12.4 66 3.7 CALM 0 0 0 0 1012.0 1011.3 0.0
22/05:30am 19.2 18.7 12.2 64 3.9 SSW 6 7 3 4 1011.8 1011.1 0.0
22/05:00am 18.5 17.5 11.1 62 4.1 SSW 7 7 4 4 1011.5 1010.9 0.0
22/04:30am 19.1 18.3 11.2 60 4.3 SSW 6 7 3 4 1011.5 1010.9 0.0
22/04:00am 18.5 17.4 10.6 60 4.3 W 7 7 4 4 1011.5 1010.9 0.0
22/03:30am 19.8 19.5 10.2 54 5.2 ENE 2 6 1 3 1011.7 1011.0 0.0
22/03:00am 19.3 18.2 10.8 58 4.6 SSW 7 7 4 4 1011.5 1010.9 0.0
22/02:30am 20.5 19.6 10.6 53 5.4 SSW 6 7 3 4 1011.7 1011.0 0.0
22/02:00am 20.9 19.6 10.1 50 5.9 S 7 9 4 5 1011.8 1011.1 0.0
22/01:30am 23.2 21.8 10.9 46 6.9 S 9 11 5 6 1012.0 1011.3 0.0
22/01:00am 20.6 19.5 10.1 51 5.7 SW 6 9 3 5 1012.0 1011.3 0.0
22/12:30am 22.1 21.0 9.9 46 6.7 SE 6 9 3 5 1012.1 1011.4 0.0
22/12:00am 24.5 25.1 11.8 45 7.3 CALM 0 0 0 0 1012.2 1011.5 0.0
 
Date/Time
EDT
Temp
°C
App
Temp
°C
Dew
Point
°C
Rel
Hum
%
Delta-T
°C
Wind Press
QNH
hPa
Press
MSL
hPa
Rain since
9am
mm
Dir  Spd
km/h
Gust
km/h
Spd
kts
Gust
kts
21/11:30pm 23.5 22.0 9.1 40 7.8 SW 7 7 4 4 1012.3 1011.6 0.0
21/11:00pm 25.3 24.1 9.6 37 8.7 SSE 6 7 3 4 1012.2 1011.5 0.0
21/10:30pm 26.3 25.0 9.2 34 9.4 S 6 7 3 4 1012.0 1011.3 0.0
21/10:00pm 26.6 26.3 8.6 32 9.8 CALM 0 0 0 0 1011.7 1011.0 0.0
21/09:30pm 27.9 27.6 8.7 30 10.6 CALM 0 0 0 0 1011.3 1010.7 0.0
21/09:00pm 30.2 28.6 8.0 25 12.2 E 6 7 3 4 1010.9 1010.3 0.0
21/08:30pm 33.1 31.3 7.1 20 14.3 ENE 6 6 3 3 1010.7 1010.1 0.0
21/08:00pm 36.6 34.8 1.4 11 18.1 CALM 0 0 0 0 1010.3 1009.7 0.0
21/07:30pm 37.3 33.9 1.9 11 18.4 NNE 9 13 5 7 1010.3 1009.7 0.0
21/07:00pm 37.5 33.9 0.7 10 18.8 NNE 9 17 5 9 1010.2 1009.6 0.0
21/06:30pm 38.3 36.1 1.3 10 19.1 SSW 2 7 1 4 1010.2 1009.6 0.0
21/06:00pm 37.6 34.0 0.8 10 18.8 NNW 9 17 5 9 1010.3 1009.7 0.0
21/05:30pm 38.0 33.7 1.1 10 19.0 NNE 13 24 7 13 1010.4 1009.8 0.0
21/05:00pm 38.3 33.9 2.7 11 18.8 NNW 15 24 8 13 1010.8 1010.2 0.0
21/04:30pm 37.6 34.3 4.5 13 17.9 NNE 11 22 6 12 1011.1 1010.5 0.0
21/04:00pm 37.1 33.7 4.1 13 17.7 ENE 11 20 6 11 1011.3 1010.7 0.0
21/03:30pm 37.5 33.8 4.4 13 17.9 NNE 13 19 7 10 1011.9 1011.2 0.0
21/03:00pm 36.3 33.2 3.5 13 17.4 NE 9 17 5 9 1012.3 1011.6 0.0
21/02:30pm 37.2 33.3 7.2 16 16.9 NW 17 30 9 16 1012.7 1012.0 0.0
21/02:00pm 36.1 33.7 8.8 19 15.7 NE 11 17 6 9 1013.1 1012.4 0.0
21/01:30pm 35.6 33.2 9.9 21 15.0 NE 13 22 7 12 1013.9 1013.2 0.0
21/01:00pm 34.0 31.2 11.2 25 13.4 NE 17 26 9 14 1014.5 1013.8 0.0
21/12:30pm 33.8 31.3 12.2 27 12.9 NNE 17 33 9 18 1015.0 1014.3 0.0
21/12:00pm 33.4 31.3 12.4 28 12.6 NE 15 24 8 13 1015.3 1014.6 0.0
21/11:30am 32.8 29.9 12.4 29 12.2 NNE 19 30 10 16 1015.7 1015.1 0.0
21/11:00am 31.4 30.1 13.6 33 10.8 N 13 24 7 13 1015.9 1015.3 0.0
21/10:30am 31.5 29.6 14.2 35 10.6 NNE 17 28 9 15 1016.1 1015.5 0.0
21/10:00am 30.1 27.5 13.8 37 9.8 N 20 32 11 17 1016.3 1015.7 0.0
21/09:30am 30.0 29.0 14.5 38 9.5 NNE 13 24 7 13 1016.3 1015.7 0.0
21/09:00am 28.6 27.3 13.7 40 8.9 ENE 13 20 7 11 1016.4 1015.8 0.0
21/08:30am 27.5 26.1 12.3 39 8.9 E 11 15 6 8 1016.3 1015.7 0.0
21/08:00am 25.5 23.8 11.3 41 8.1 ESE 11 15 6 8 1016.2 1015.6 0.0
21/07:30am 23.6 22.3 11.3 46 6.9 ESE 9 13 5 7 1016.1 1015.5 0.0
21/07:00am 20.2 19.5 11.9 59 4.6 E 7 9 4 5 1016.1 1015.5 0.0
21/06:30am 18.8 19.4 11.9 64 3.8 CALM 0 6 0 3 1016.0 1015.4 0.0
21/06:00am 18.5 19.1 12.0 66 3.6 CALM 0 0 0 0 1015.7 1015.1 0.0
21/05:30am 18.3 18.7 11.4 64 3.8 CALM 0 0 0 0 1015.2 1014.5 0.0
21/05:00am 19.5 20.3 12.5 64 3.9 CALM 0 0 0 0 1015.2 1014.5 0.0
21/04:30am 18.8 18.5 11.6 63 4.0 SSW 4 6 2 3 1015.0 1014.3 0.0
21/04:00am 19.0 18.0 12.3 65 3.8 SW 9 9 5 5 1015.0 1014.3 0.0
21/03:30am 21.0 21.4 11.1 53 5.5 CALM 0 4 0 2 1014.9 1014.2 0.0
21/03:00am 21.5 20.6 11.2 52 5.7 S 7 9 4 5 1014.8 1014.1 0.0
21/02:30am 23.6 22.4 11.6 47 6.8 SSE 9 11 5 6 1014.8 1014.1 0.0
21/02:00am 24.1 22.5 11.4 45 7.2 SSE 11 13 6 7 1014.9 1014.2 0.0
21/01:30am 24.6 23.5 11.9 45 7.3 S 9 13 5 7 1014.8 1014.1 0.0
21/01:00am 25.5 24.0 12.0 43 7.8 S 11 15 6 8 1014.9 1014.2 0.0
21/12:30am 26.0 25.1 12.5 43 7.9 S 9 11 5 6 1014.8 1014.1 0.0
21/12:00am 26.1 25.1 12.2 42 8.0 S 9 13 5 7 1014.8 1014.1 0.0
 
Date/Time
EDT
Temp
°C
App
Temp
°C
Dew
Point
°C
Rel
Hum
%
Delta-T
°C
Wind Press
QNH
hPa
Press
MSL
hPa
Rain since
9am
mm
Dir  Spd
km/h
Gust
km/h
Spd
kts
Gust
kts
20/11:30pm 26.6 25.2 12.3 41 8.3 S 11 13 6 7 1014.7 1014.0 0.0
20/11:00pm 27.7 26.5 11.7 37 9.3 SSE 9 11 5 6 1014.6 1013.9 0.0
20/10:30pm 29.1 27.8 12.5 36 9.8 S 11 17 6 9 1014.4 1013.7 0.0
20/10:00pm 29.3 27.3 12.7 36 9.8 SSW 15 17 8 9 1014.2 1013.5 0.0
20/09:30pm 29.5 26.7 11.5 33 10.5 SSW 17 20 9 11 1013.9 1013.2 0.0
20/09:00pm 29.9 29.4 7.8 25 12.1 CALM 0 0 0 0 1013.6 1012.9 0.0
20/08:30pm 32.4 30.5 6.6 20 14.1 WSW 6 6 3 3 1013.4 1012.7 0.0
20/08:00pm 35.2 32.9 4.7 15 16.4 W 6 7 3 4 1013.3 1012.6 0.0
20/07:30pm 36.1 33.9 5.4 15 16.7 SSE 6 11 3 6 1013.2 1012.5 0.0
20/07:00pm 35.9 32.7 3.2 13 17.2 S 9 15 5 8 1013.1 1012.4 0.0
20/06:30pm 35.8 32.4 4.2 14 16.9 ENE 11 15 6 8 1013.2 1012.5 0.0
20/06:00pm 36.7 34.0 3.8 13 17.5 SE 7 13 4 7 1013.4 1012.7 0.0
20/05:30pm 36.6 33.7 4.8 14 17.2 S 9 19 5 10 1013.5 1012.8 0.0
20/05:00pm 35.9 32.5 4.2 14 16.9 SSE 11 17 6 9 1014.0 1013.3 0.0
20/04:30pm 35.7 32.3 4.1 14 16.8 SSW 11 22 6 12 1014.5 1013.8 0.0
20/04:00pm 35.2 31.7 1.5 12 17.2 WSW 9 17 5 9 1014.8 1014.1 0.0
20/03:30pm 34.6 30.7 1.1 12 16.9 SSW 11 17 6 9 1015.2 1014.5 0.0
20/03:00pm 34.2 30.8 1.9 13 16.5 NNE 9 15 5 8 1015.7 1015.1 0.0
20/02:30pm 33.4 29.9 1.3 13 16.1 SSE 9 15 5 8 1016.2 1015.6 0.0
20/02:00pm 33.6 30.5 1.4 13 16.2 WSW 7 13 4 7 1016.6 1016.0 0.0
20/01:30pm 32.1 29.6 4.8 18 14.4 SSW 7 11 4 6 1016.9 1016.3 0.0
20/01:00pm 31.6 28.8 5.2 19 14.0 NNW 9 13 5 7 1017.4 1016.8 0.0
20/12:30pm 30.6 28.4 9.5 27 11.9 NNW 11 15 6 8 1017.9 1017.3 0.0
20/12:00pm 30.0 28.6 9.5 28 11.5 N 7 13 4 7 1018.3 1017.7 0.0
20/11:30am 29.1 27.0 9.8 30 10.9 NNE 11 20 6 11 1018.6 1017.9 0.0
20/11:00am 28.4 26.0 10.1 32 10.3 N 13 20 7 11 1018.7 1018.0 0.0
20/10:30am 28.0 25.1 11.1 35 9.7 N 17 24 9 13 1018.8 1018.1 0.0
20/10:00am 26.6 25.3 9.9 35 9.3 NNE 7 13 4 7 1019.0 1018.3 0.0
20/09:30am 24.7 23.3 9.4 38 8.4 NW 7 11 4 6 1019.0 1018.3 0.0
20/09:00am 23.5 22.4 9.9 42 7.5 NE 6 11 3 6 1019.0 1018.3 0.0
20/08:30am 22.0 20.4 10.2 47 6.5 N 9 13 5 7 1018.7 1018.0 0.0
20/08:00am 20.5 19.9 10.3 52 5.5 NNE 4 9 2 5 1018.2 1017.6 0.0
20/07:30am 18.4 18.7 10.8 61 4.1 CALM 0 0 0 0 1017.8 1017.2 0.0
20/07:00am 16.9 17.0 10.3 65 3.5 CALM 0 0 0 0 1017.3 1016.7 0.0
20/06:30am 15.2 15.4 10.4 73 2.5 CALM 0 4 0 2 1017.2 1016.6 0.0
20/06:00am 14.3 14.2 9.5 73 2.5 CALM 0 0 0 0 1016.7 1016.1 0.0
20/05:30am 15.6 15.8 10.6 72 2.7 CALM 0 0 0 0 1016.6 1016.0 0.0
20/05:00am 16.7 15.7 10.3 66 3.4 SSW 6 7 3 4 1016.6 1016.0 0.0
20/04:30am 15.7 15.3 9.8 68 3.1 SSW 2 9 1 5 1016.1 1015.5 0.0
20/04:00am 16.4 16.3 9.6 64 3.6 CALM 0 0 0 0 1016.2 1015.6 0.0
20/03:30am 16.9 14.8 9.8 63 3.8 SSW 11 11 6 6 1016.1 1015.5 0.0
20/03:00am 18.2 16.4 9.5 57 4.6 S 9 11 5 6 1015.9 1015.3 0.0
20/02:30am 18.4 16.2 9.5 56 4.7 SSW 11 13 6 7 1016.4 1015.8 0.0
20/02:00am 20.9 18.9 10.1 50 5.9 S 11 13 6 7 1016.6 1016.0 0.0
20/01:30am 21.1 19.1 10.3 50 5.9 S 11 15 6 8 1016.6 1016.0 0.0
20/01:00am 20.8 19.3 10.6 52 5.6 SSE 9 11 5 6 1016.5 1015.9 0.0
20/12:30am 21.0 19.0 10.2 50 5.9 SW 11 11 6 6 1016.7 1016.1 0.0
20/12:00am 21.7 19.3 9.9 47 6.4 SW 13 13 7 7 1016.3 1015.7 0.0
 
Date/Time
EDT
Temp
°C
App
Temp
°C
Dew
Point
°C
Rel
Hum
%
Delta-T
°C
Wind Press
QNH
hPa
Press
MSL
hPa
Rain since
9am
mm
Dir  Spd
km/h
Gust
km/h
Spd
kts
Gust
kts
19/11:30pm 23.3 20.1 10.0 43 7.3 SW 17 20 9 11 1015.8 1015.2 0.0
19/11:00pm 23.6 21.5 9.9 42 7.5 SW 11 17 6 9 1015.7 1015.1 0.0
19/10:30pm 25.4 21.6 9.7 37 8.7 SW 20 30 11 16 1015.5 1014.9 0.0
19/10:00pm 25.9 22.2 9.3 35 9.1 WSW 19 26 10 14 1015.4 1014.7 0.0
19/09:30pm 26.5 22.7 8.9 33 9.7 W 19 26 10 14 1015.1 1014.4 0.0
19/09:00pm 27.8 23.9 8.6 30 10.6 W 19 24 10 13 1014.8 1014.1 0.0
19/08:30pm 29.0 24.6 7.6 26 11.6 W 20 24 11 13 1014.2 1013.5 0.0
19/08:00pm 30.9 26.0 5.3 20 13.5 W 20 28 11 15 1014.0 1013.3 0.0
19/07:30pm 33.4 27.5 -5.3 8 17.4 W 17 20 9 11 1013.8 1013.1 0.0
19/07:00pm 34.1 29.0 -4.8 8 17.8 WSW 13 20 7 11 1013.6 1012.9 0.0
19/06:30pm 34.6 29.2 -8.2 6 18.6 SW 13 20 7 11 1013.7 1013.0 0.0
19/06:00pm 34.9 29.2 -8.0 6 18.7 WSW 15 19 8 10 1013.8 1013.1 0.0
19/05:30pm 34.8 28.9 -6.0 7 18.4 SW 17 28 9 15 1013.9 1013.2 0.0
19/05:00pm 34.8 29.4 -1.3 10 17.5 SW 17 24 9 13 1014.1 1013.4 0.0
19/04:30pm 34.2 29.7 -0.4 11 17.0 WSW 13 26 7 14 1014.4 1013.7 0.0
19/04:00pm 33.8 28.8 1.6 13 16.3 SW 17 24 9 13 1014.8 1014.1 0.0
19/03:30pm 34.6 30.3 1.1 12 16.9 WSW 13 19 7 10 1015.0 1014.3 0.0
19/03:00pm 32.6 28.4 1.7 14 15.5 WSW 13 24 7 13 1015.4 1014.7 0.0
19/02:30pm 32.5 28.1 2.5 15 15.3 W 15 20 8 11 1015.7 1015.1 0.0
19/02:00pm 32.0 27.3 3.1 16 14.8 W 17 26 9 14 1016.0 1015.4 0.0
19/01:30pm 31.8 26.9 2.0 15 15.0 SW 17 33 9 18 1016.3 1015.7 0.0
19/01:00pm 31.3 26.6 -1.5 12 15.5 WSW 13 20 7 11 1016.6 1016.0 0.0
19/12:30pm 29.7 25.1 3.6 19 13.3 SW 17 22 9 12 1016.9 1016.3 0.0
19/12:00pm 29.0 25.2 3.8 20 12.8 SW 13 24 7 13 1017.0 1016.4 0.0
19/11:30am 28.0 24.4 5.0 23 11.9 W 13 24 7 13 1017.1 1016.5 0.0
19/11:00am 27.0 24.1 6.4 27 10.8 W 11 19 6 10 1017.0 1016.4 0.0
19/10:30am 26.0 23.5 8.0 32 9.7 W 11 19 6 10 1017.0 1016.4 0.0

Other Formats:

Comma delimited format used in spreadsheet applications
http://www.bom.gov.au/fwo/IDV60801/IDV60801.94889.axf

JavaScript Object Notation format (JSON) in row-major order
http://www.bom.gov.au/fwo/IDV60801/IDV60801.94889.json